| time (UTC) | temp F | wind direction | speed MPH | gust MPH | rain 1hr in | rain 24hr in | rain mn in | humidity % | barometer mb |
| 20260902012339 | 94 | 195 | 0.0 | 1.0 | 0.00 | 0.00 | 0.00 | 36 | 1014.9 |
| 20260902011835 | 94 | 163 | 0.0 | 2.0 | 0.00 | 0.00 | 0.00 | 36 | 1014.8 |
| 20260902011329 | 94 | 117 | 0.0 | 1.0 | 0.00 | 0.00 | 0.00 | 35 | 1015.0 |
| 20260902010829 | 95 | 193 | 2.0 | 3.0 | 0.00 | 0.00 | 0.00 | 34 | 1014.7 |
| 20260902010324 | 95 | 175 | 1.0 | 2.0 | 0.00 | 0.00 | 0.00 | 34 | 1014.9 |
| 20260902005823 | 95 | 173 | 1.0 | 2.0 | 0.00 | 0.00 | 0.00 | 34 | 1014.8 |
| 20260902005317 | 95 | 122 | 0.0 | 1.0 | 0.00 | 0.00 | 0.00 | 33 | 1015.0 |
| 20260902004813 | 96 | 147 | 0.0 | 2.0 | 0.00 | 0.00 | 0.00 | 33 | 1014.8 |
| 20260902004308 | 96 | 121 | 0.0 | 1.0 | 0.00 | 0.00 | 0.00 | 33 | 1014.4 |
| 20260902003802 | 97 | 186 | 1.0 | 3.0 | 0.00 | 0.00 | 0.00 | 32 | 1014.8 |
| 20260902003258 | 97 | 171 | 2.0 | 7.0 | 0.00 | 0.00 | 0.00 | 32 | 1014.9 |
| 20260902002753 | 97 | 206 | 2.0 | 3.0 | 0.00 | 0.00 | 0.00 | 32 | 1014.8 |
| 20260902002252 | 98 | 184 | 2.0 | 3.0 | 0.00 | 0.00 | 0.00 | 32 | 1014.7 |
| 20260902001749 | 98 | 221 | 2.0 | 6.0 | 0.00 | 0.00 | 0.00 | 32 | 1014.7 |
| 20260902001244 | 98 | 170 | 2.0 | 3.0 | 0.00 | 0.00 | 0.00 | 32 | 1014.9 |
| 20260902000743 | 98 | 169 | 4.0 | 7.0 | 0.00 | 0.00 | 0.00 | 31 | 1014.7 |
| 20260902000241 | 98 | 199 | 6.0 | 7.0 | 0.00 | 0.00 | 0.00 | 31 | 1014.7 |
| 20260901235733 | 99 | 228 | 1.0 | 4.0 | 0.00 | 0.00 | 0.00 | 31 | 1014.8 |
| 20260901235228 | 99 | 202 | 1.0 | 7.0 | 0.00 | 0.00 | 0.00 | 30 | 1014.9 |
| 20260901234727 | 99 | 213 | 5.0 | 7.0 | 0.00 | 0.00 | 0.00 | 29 | 1014.8 |
| 20260901234222 | 100 | 212 | 5.0 | 6.0 | 0.00 | 0.00 | 0.00 | 29 | 1015.0 |
| 20260901233716 | 100 | 201 | 2.0 | 7.0 | 0.00 | 0.00 | 0.00 | 30 | 1014.9 |
| 20260901233212 | 100 | 212 | 5.0 | 9.0 | 0.00 | 0.00 | 0.00 | 30 | 1014.8 |
| 20260901232707 | 100 | 221 | 1.0 | 3.0 | 0.00 | 0.00 | 0.00 | 30 | 1014.9 |
| 20260901232202 | 101 | 265 | 3.0 | 4.0 | 0.00 | 0.00 | 0.00 | 29 | 1014.9 |
| 20260901231659 | 101 | 190 | 6.0 | 10.0 | 0.00 | 0.00 | 0.00 | 29 | 1015.0 |
| 20260901231155 | 101 | 179 | 2.0 | 4.0 | 0.00 | 0.00 | 0.00 | 28 | 1015.2 |
| 20260901230650 | 101 | 190 | 5.0 | 7.0 | 0.00 | 0.00 | 0.00 | 28 | 1015.1 |
| 20260901230150 | 101 | 92 | 2.0 | 6.0 | 0.00 | 0.00 | 0.00 | 28 | 1015.1 |
| 20260901225645 | 102 | 171 | 0.0 | 2.0 | 0.00 | 0.00 | 0.00 | 28 | 1015.2 |
| 20260901225139 | 102 | 57 | 2.0 | 7.0 | 0.00 | 0.00 | 0.00 | 28 | 1015.0 |
| 20260901224636 | 103 | 292 | 2.0 | 3.0 | 0.00 | 0.00 | 0.00 | 28 | 1015.0 |
| 20260901224132 | 102 | 217 | 3.0 | 8.0 | 0.00 | 0.00 | 0.00 | 28 | 1015.2 |
| 20260901223627 | 102 | 176 | 3.0 | 3.0 | 0.00 | 0.00 | 0.00 | 27 | 1015.1 |
| 20260901223122 | 102 | 99 | 1.0 | 4.0 | 0.00 | 0.00 | 0.00 | 28 | 1015.0 |
| 20260901222618 | 102 | 210 | 2.0 | 3.0 | 0.00 | 0.00 | 0.00 | 27 | 1015.1 |
| 20260901222114 | 102 | 118 | 2.0 | 3.0 | 0.00 | 0.00 | 0.00 | 28 | 1015.0 |
| 20260901221610 | 102 | 238 | 4.0 | 4.0 | 0.00 | 0.00 | 0.00 | 28 | 1015.1 |
| 20260901221106 | 102 | 191 | 2.0 | 3.0 | 0.00 | 0.00 | 0.00 | 28 | 1014.9 |
| 20260901220605 | 102 | 190 | 4.0 | 6.0 | 0.00 | 0.00 | 0.00 | 28 | 1015.1 |
| 20260901220104 | 102 | 182 | 2.0 | 6.0 | 0.00 | 0.00 | 0.00 | 27 | 1014.9 |
| 20260901215602 | 102 | 201 | 1.0 | 3.0 | 0.00 | 0.00 | 0.00 | 27 | 1015.0 |
| 20260901215056 | 102 | 105 | 1.0 | 2.0 | 0.00 | 0.00 | 0.00 | 27 | 1015.1 |
| 20260901214555 | 100 | 339 | 2.0 | 3.0 | 0.00 | 0.00 | 0.00 | 29 | 1015.1 |
| 20260901214049 | 99 | 153 | 0.0 | 2.0 | 0.00 | 0.00 | 0.00 | 30 | 1015.5 |
| 20260901213543 | 99 | 142 | 4.0 | 7.0 | 0.00 | 0.00 | 0.00 | 29 | 1015.5 |
| 20260901213037 | 100 | 201 | 5.0 | 8.0 | 0.00 | 0.00 | 0.00 | 29 | 1015.4 |
| 20260901212532 | 103 | 184 | 4.0 | 9.0 | 0.00 | 0.00 | 0.00 | 27 | 1015.2 |
| 20260901212029 | 103 | 105 | 1.0 | 3.0 | 0.00 | 0.00 | 0.00 | 27 | 1015.6 |
| 20260901211524 | 103 | 105 | 5.0 | 8.0 | 0.00 | 0.00 | 0.00 | 28 | 1015.7 |
| 20260901211020 | 102 | 198 | 6.0 | 8.0 | 0.00 | 0.00 | 0.00 | 28 | 1015.7 |
| 20260901210515 | 101 | 194 | 1.0 | 3.0 | 0.00 | 0.00 | 0.00 | 28 | 1015.6 |
| 20260901210011 | 99 | 173 | 5.0 | 7.0 | 0.00 | 0.00 | 0.00 | 30 | 1015.8 |
| 20260901205506 | 101 | 176 | 5.0 | 9.0 | 0.00 | 0.00 | 0.00 | 28 | 1015.7 |
| 20260901205001 | 101 | 163 | 4.0 | 9.0 | 0.00 | 0.00 | 0.00 | 27 | 1015.7 |
| 20260901204458 | 101 | 185 | 6.0 | 10.0 | 0.00 | 0.00 | 0.00 | 28 | 1016.0 |
| 20260901203956 | 102 | 234 | 3.0 | 6.0 | 0.00 | 0.00 | 0.00 | 27 | 1016.2 |
| 20260901203452 | 101 | 247 | 6.0 | 7.0 | 0.00 | 0.00 | 0.00 | 27 | 1016.1 |
| 20260901202947 | 101 | 189 | 5.0 | 9.0 | 0.00 | 0.00 | 0.00 | 27 | 1016.3 |
| 20260901202442 | 101 | 224 | 2.0 | 7.0 | 0.00 | 0.00 | 0.00 | 27 | 1016.1 |
| 20260901201937 | 100 | 300 | 4.0 | 4.0 | 0.00 | 0.00 | 0.00 | 28 | 1016.1 |
| 20260901201432 | 103 | 182 | 4.0 | 4.0 | 0.00 | 0.00 | 0.00 | 26 | 1016.2 |
| 20260901200931 | 101 | 175 | 4.0 | 9.0 | 0.00 | 0.00 | 0.00 | 27 | 1016.4 |
| 20260901200421 | 100 | 155 | 5.0 | 6.0 | 0.00 | 0.00 | 0.00 | 28 | 1016.5 |
| 20260901195920 | 101 | 178 | 3.0 | 10.0 | 0.00 | 0.00 | 0.00 | 27 | 1016.7 |
| 20260901195419 | 102 | 181 | 3.0 | 10.0 | 0.00 | 0.00 | 0.00 | 26 | 1016.7 |
| 20260901194914 | 102 | 194 | 4.0 | 6.0 | 0.00 | 0.00 | 0.00 | 25 | 1016.5 |
| 20260901194408 | 102 | 193 | 3.0 | 9.0 | 0.00 | 0.00 | 0.00 | 26 | 1016.8 |
| 20260901193904 | 103 | 251 | 2.0 | 8.0 | 0.00 | 0.00 | 0.00 | 26 | 1016.7 |
| 20260901193403 | 104 | 175 | 5.0 | 7.0 | 0.00 | 0.00 | 0.00 | 26 | 1016.8 |
| 20260901192858 | 103 | 127 | 1.0 | 2.0 | 0.00 | 0.00 | 0.00 | 27 | 1016.9 |
| 20260901192354 | 101 | 203 | 4.0 | 7.0 | 0.00 | 0.00 | 0.00 | 26 | 1016.8 |
| 20260901191850 | 102 | 21 | 3.0 | 4.0 | 0.00 | 0.00 | 0.00 | 26 | 1016.9 |
| 20260901191345 | 103 | 261 | 3.0 | 6.0 | 0.00 | 0.00 | 0.00 | 26 | 1017.1 |
| 20260901190841 | 101 | 233 | 1.0 | 4.0 | 0.00 | 0.00 | 0.00 | 25 | 1017.0 |
| 20260901190340 | 102 | 175 | 5.0 | 9.0 | 0.00 | 0.00 | 0.00 | 25 | 1017.2 |
| 20260901185839 | 100 | 185 | 4.0 | 11.0 | 0.00 | 0.00 | 0.00 | 28 | 1017.3 |
| 20260901185333 | 100 | 184 | 1.0 | 8.0 | 0.00 | 0.00 | 0.00 | 28 | 1017.3 |
| 20260901184828 | 99 | 157 | 4.0 | 9.0 | 0.00 | 0.00 | 0.00 | 28 | 1017.2 |
| 20260901184324 | 100 | 196 | 2.0 | 6.0 | 0.00 | 0.00 | 0.00 | 27 | 1017.4 |
| 20260901183819 | 101 | 167 | 5.0 | 13.0 | 0.00 | 0.00 | 0.00 | 28 | 1017.7 |
| 20260901183318 | 102 | 220 | 2.0 | 7.0 | 0.00 | 0.00 | 0.00 | 28 | 1017.4 |
| 20260901182814 | 100 | 219 | 1.0 | 10.0 | 0.00 | 0.00 | 0.00 | 28 | 1017.7 |
| 20260901182314 | 99 | 265 | 3.0 | 7.0 | 0.00 | 0.00 | 0.00 | 29 | 1017.8 |
| 20260901181809 | 100 | 199 | 8.0 | 10.0 | 0.00 | 0.00 | 0.00 | 29 | 1018.0 |
| 20260901181303 | 100 | 173 | 7.0 | 11.0 | 0.00 | 0.00 | 0.00 | 29 | 1017.9 |
| 20260901180757 | 99 | 163 | 3.0 | 9.0 | 0.00 | 0.00 | 0.00 | 29 | 1017.8 |
| 20260901180256 | 98 | 207 | 4.0 | 7.0 | 0.00 | 0.00 | 0.00 | 31 | 1017.8 |
| 20260901175755 | 99 | 191 | 6.0 | 10.0 | 0.00 | 0.00 | 0.00 | 30 | 1018.0 |
| 20260901175250 | 99 | 159 | 3.0 | 8.0 | 0.00 | 0.00 | 0.00 | 32 | 1018.1 |
| 20260901174745 | 98 | 237 | 2.0 | 6.0 | 0.00 | 0.00 | 0.00 | 31 | 1018.1 |
| 20260901174241 | 97 | 184 | 6.0 | 8.0 | 0.00 | 0.00 | 0.00 | 33 | 1018.0 |
| 20260901173737 | 99 | 113 | 3.0 | 10.0 | 0.00 | 0.00 | 0.00 | 32 | 1018.2 |
| 20260901173231 | 98 | 287 | 4.0 | 9.0 | 0.00 | 0.00 | 0.00 | 31 | 1018.3 |
| 20260901172728 | 98 | 173 | 3.0 | 7.0 | 0.00 | 0.00 | 0.00 | 33 | 1018.4 |
| 20260901172226 | 98 | 275 | 5.0 | 9.0 | 0.00 | 0.00 | 0.00 | 33 | 1018.4 |
| 20260901171725 | 97 | 185 | 3.0 | 8.0 | 0.00 | 0.00 | 0.00 | 34 | 1018.6 |
| 20260901171224 | 97 | 213 | 3.0 | 9.0 | 0.00 | 0.00 | 0.00 | 33 | 1018.5 |
| 20260901170724 | 98 | 208 | 4.0 | 7.0 | 0.00 | 0.00 | 0.00 | 33 | 1018.6 |
| 20260901170218 | 97 | 169 | 4.0 | 11.0 | 0.00 | 0.00 | 0.00 | 34 | 1018.7 |
| 20260901165717 | 98 | 277 | 4.0 | 7.0 | 0.00 | 0.00 | 0.00 | 34 | 1018.6 |
| 20260901165212 | 97 | 214 | 7.0 | 9.0 | 0.00 | 0.00 | 0.00 | 34 | 1018.7 |
| 20260901164708 | 98 | 251 | 6.0 | 10.0 | 0.00 | 0.00 | 0.00 | 34 | 1018.8 |
| 20260901164203 | 97 | 195 | 6.0 | 9.0 | 0.00 | 0.00 | 0.00 | 35 | 1018.6 |
| 20260901163658 | 96 | 181 | 2.0 | 4.0 | 0.00 | 0.00 | 0.00 | 36 | 1018.8 |
| 20260901163158 | 95 | 151 | 6.0 | 10.0 | 0.00 | 0.00 | 0.00 | 37 | 1018.9 |
| 20260901162653 | 95 | 163 | 4.0 | 10.0 | 0.00 | 0.00 | 0.00 | 37 | 1018.9 |
| 20260901162152 | 95 | 205 | 5.0 | 7.0 | 0.00 | 0.00 | 0.00 | 37 | 1018.8 |
| 20260901161651 | 95 | 223 | 4.0 | 11.0 | 0.00 | 0.00 | 0.00 | 37 | 1018.9 |
| 20260901161151 | 95 | 133 | 3.0 | 10.0 | 0.00 | 0.00 | 0.00 | 37 | 1018.8 |
| 20260901160648 | 94 | 245 | 4.0 | 7.0 | 0.00 | 0.00 | 0.00 | 37 | 1019.0 |
| 20260901160143 | 94 | 167 | 6.0 | 10.0 | 0.00 | 0.00 | 0.00 | 38 | 1018.9 |
| 20260901155642 | 94 | 195 | 5.0 | 8.0 | 0.00 | 0.00 | 0.00 | 38 | 1018.8 |
| 20260901155137 | 94 | 124 | 4.0 | 8.0 | 0.00 | 0.00 | 0.00 | 38 | 1018.9 |
| 20260901154632 | 93 | 175 | 4.0 | 7.0 | 0.00 | 0.00 | 0.00 | 39 | 1018.9 |
| 20260901154127 | 93 | 202 | 4.0 | 8.0 | 0.00 | 0.00 | 0.00 | 40 | 1018.7 |
| 20260901153622 | 92 | 184 | 4.0 | 7.0 | 0.00 | 0.00 | 0.00 | 41 | 1018.9 |
| 20260901153120 | 92 | 165 | 4.0 | 9.0 | 0.00 | 0.00 | 0.00 | 41 | 1018.9 |
| 20260901152617 | 92 | 177 | 3.0 | 4.0 | 0.00 | 0.00 | 0.00 | 41 | 1018.8 |
| 20260901152115 | 91 | 195 | 4.0 | 9.0 | 0.00 | 0.00 | 0.00 | 42 | 1018.7 |
| 20260901151611 | 90 | 229 | 4.0 | 6.0 | 0.00 | 0.00 | 0.00 | 42 | 1018.9 |
| 20260901151110 | 90 | 213 | 6.0 | 9.0 | 0.00 | 0.00 | 0.00 | 43 | 1018.8 |
| 20260901150609 | 89 | 194 | 4.0 | 9.0 | 0.00 | 0.00 | 0.00 | 44 | 1018.8 |
| 20260901150107 | 89 | 243 | 5.0 | 7.0 | 0.00 | 0.00 | 0.00 | 43 | 1018.6 |
| 20260901145601 | 89 | 168 | 3.0 | 3.0 | 0.00 | 0.00 | 0.00 | 44 | 1019.0 |
| 20260901145059 | 88 | 181 | 1.0 | 4.0 | 0.00 | 0.00 | 0.00 | 45 | 1019.0 |
| 20260901144556 | 88 | 222 | 4.0 | 4.0 | 0.00 | 0.00 | 0.00 | 46 | 1019.0 |
| 20260901144050 | 88 | 241 | 3.0 | 8.0 | 0.00 | 0.00 | 0.00 | 46 | 1019.1 |
| 20260901143546 | 87 | 274 | 2.0 | 4.0 | 0.00 | 0.00 | 0.00 | 46 | 1019.0 |
| 20260901143043 | 87 | 257 | 3.0 | 4.0 | 0.00 | 0.00 | 0.00 | 47 | 1019.0 |
| 20260901142538 | 87 | 239 | 4.0 | 9.0 | 0.00 | 0.00 | 0.00 | 48 | 1018.9 |
| 20260901142038 | 87 | 179 | 4.0 | 7.0 | 0.00 | 0.00 | 0.00 | 48 | 1019.1 |
| 20260901141538 | 86 | 250 | 2.0 | 8.0 | 0.00 | 0.00 | 0.00 | 49 | 1019.0 |
| 20260901141027 | 86 | 297 | 4.0 | 7.0 | 0.00 | 0.00 | 0.00 | 49 | 1019.1 |
| 20260901140526 | 86 | 193 | 3.0 | 9.0 | 0.00 | 0.00 | 0.00 | 50 | 1019.2 |
| 20260901140021 | 85 | 199 | 2.0 | 4.0 | 0.00 | 0.00 | 0.00 | 50 | 1019.0 |
| 20260901135520 | 85 | 178 | 2.0 | 4.0 | 0.00 | 0.00 | 0.00 | 50 | 1019.0 |
| 20260901135016 | 85 | 186 | 5.0 | 7.0 | 0.00 | 0.00 | 0.00 | 51 | 1019.1 |
| 20260901134512 | 84 | 177 | 4.0 | 6.0 | 0.00 | 0.00 | 0.00 | 51 | 1018.9 |
| 20260901134006 | 84 | 79 | 2.0 | 3.0 | 0.00 | 0.00 | 0.00 | 51 | 1018.9 |
| 20260901133505 | 84 | 194 | 4.0 | 6.0 | 0.00 | 0.00 | 0.00 | 52 | 1018.8 |
| 20260901133004 | 83 | 213 | 1.0 | 6.0 | 0.00 | 0.00 | 0.00 | 53 | 1019.0 |
| 20260901132503 | 83 | 132 | 1.0 | 2.0 | 0.00 | 0.00 | 0.00 | 53 | 1018.8 |
| 20260901132003 | 83 | 183 | 2.0 | 6.0 | 0.00 | 0.00 | 0.00 | 53 | 1018.8 |
| 20260901131457 | 82 | 151 | 2.0 | 4.0 | 0.00 | 0.00 | 0.00 | 54 | 1018.8 |
| 20260901130953 | 82 | 173 | 2.0 | 4.0 | 0.00 | 0.00 | 0.00 | 54 | 1018.7 |
| 20260901130447 | 82 | 205 | 1.0 | 3.0 | 0.00 | 0.00 | 0.00 | 54 | 1018.8 |
| 20260901125945 | 82 | 170 | 2.0 | 4.0 | 0.00 | 0.00 | 0.00 | 55 | 1018.6 |
| 20260901125445 | 81 | 102 | 2.0 | 3.0 | 0.00 | 0.00 | 0.00 | 55 | 1018.5 |
| 20260901124939 | 81 | 142 | 3.0 | 6.0 | 0.00 | 0.00 | 0.00 | 55 | 1018.5 |
| 20260901124434 | 81 | 160 | 2.0 | 8.0 | 0.00 | 0.00 | 0.00 | 55 | 1018.5 |
| 20260901123929 | 81 | 207 | 3.0 | 7.0 | 0.00 | 0.00 | 0.00 | 56 | 1018.5 |
| 20260901123424 | 81 | 197 | 2.0 | 6.0 | 0.00 | 0.00 | 0.00 | 56 | 1018.3 |
| 20260901122922 | 81 | 224 | 3.0 | 6.0 | 0.00 | 0.00 | 0.00 | 55 | 1018.3 |
| 20260901122417 | 81 | 196 | 5.0 | 8.0 | 0.00 | 0.00 | 0.00 | 55 | 1018.4 |
| 20260901121916 | 81 | 135 | 3.0 | 4.0 | 0.00 | 0.00 | 0.00 | 56 | 1018.2 |
| 20260901121411 | 80 | 186 | 1.0 | 6.0 | 0.00 | 0.00 | 0.00 | 56 | 1018.3 |
| 20260901120907 | 80 | 187 | 2.0 | 6.0 | 0.00 | 0.00 | 0.00 | 56 | 1018.1 |
| 20260901120406 | 81 | 157 | 3.0 | 6.0 | 0.00 | 0.00 | 0.00 | 55 | 1018.0 |
| 20260901115902 | 81 | 155 | 0.0 | 6.0 | 0.00 | 0.00 | 0.00 | 55 | 1018.0 |
| 20260901115401 | 81 | 184 | 3.0 | 7.0 | 0.00 | 0.00 | 0.00 | 55 | 1018.0 |
| 20260901114859 | 81 | 183 | 2.0 | 11.0 | 0.00 | 0.00 | 0.00 | 55 | 1018.1 |
| 20260901114355 | 81 | 186 | 1.0 | 8.0 | 0.00 | 0.00 | 0.00 | 55 | 1018.0 |
| 20260901113853 | 82 | 191 | 2.0 | 3.0 | 0.00 | 0.00 | 0.00 | 54 | 1017.9 |
| 20260901113352 | 82 | 151 | 2.0 | 7.0 | 0.00 | 0.00 | 0.00 | 54 | 1017.8 |
| 20260901112848 | 82 | 194 | 5.0 | 7.0 | 0.00 | 0.00 | 0.00 | 54 | 1017.7 |
| 20260901112348 | 82 | 196 | 4.0 | 6.0 | 0.00 | 0.00 | 0.00 | 54 | 1017.8 |
| 20260901111842 | 82 | 198 | 4.0 | 4.0 | 0.00 | 0.00 | 0.00 | 54 | 1017.9 |
| 20260901111340 | 82 | 175 | 3.0 | 4.0 | 0.00 | 0.00 | 0.00 | 53 | 1017.8 |
| 20260901110840 | 82 | 212 | 4.0 | 6.0 | 0.00 | 0.00 | 0.00 | 53 | 1017.8 |
| 20260901110335 | 82 | 178 | 2.0 | 7.0 | 0.00 | 0.00 | 0.00 | 53 | 1017.7 |
| 20260901105831 | 82 | 195 | 3.0 | 7.0 | 0.00 | 0.00 | 0.00 | 52 | 1017.9 |
| 20260901105326 | 82 | 222 | 4.0 | 4.0 | 0.00 | 0.00 | 0.00 | 52 | 1017.7 |
| 20260901104823 | 81 | 204 | 5.0 | 7.0 | 0.00 | 0.00 | 0.00 | 52 | 1017.9 |
| 20260901104317 | 81 | 176 | 2.0 | 6.0 | 0.00 | 0.00 | 0.00 | 52 | 1017.9 |
| 20260901103813 | 81 | 194 | 1.0 | 6.0 | 0.00 | 0.00 | 0.00 | 52 | 1017.8 |
| 20260901103313 | 81 | 206 | 3.0 | 6.0 | 0.00 | 0.00 | 0.00 | 53 | 1017.8 |
| 20260901102808 | 80 | 151 | 1.0 | 4.0 | 0.00 | 0.00 | 0.00 | 54 | 1017.9 |
| 20260901102306 | 80 | 195 | 1.0 | 2.0 | 0.00 | 0.00 | 0.00 | 53 | 1017.7 |
| 20260901101758 | 80 | 147 | 0.0 | 1.0 | 0.00 | 0.00 | 0.00 | 54 | 1017.9 |
| 20260901101258 | 80 | 129 | 0.0 | 0.0 | 0.00 | 0.00 | 0.00 | 53 | 1017.4 |
| 20260901100757 | 80 | 184 | 0.0 | 2.0 | 0.00 | 0.00 | 0.00 | 53 | 1017.4 |
| 20260901100252 | 80 | 149 | 0.0 | 0.0 | 0.00 | 0.00 | 0.00 | 53 | 1017.5 |
| 20260901095750 | 80 | 174 | 1.0 | 2.0 | 0.00 | 0.00 | 0.00 | 53 | 1017.8 |
| 20260901095247 | 79 | 120 | 0.0 | 1.0 | 0.00 | 0.00 | 0.00 | 54 | 1017.5 |
| 20260901094737 | 79 | 151 | 0.0 | 0.0 | 0.00 | 0.00 | 0.00 | 53 | 1017.5 |
| 20260901094232 | 80 | 149 | 0.0 | 2.0 | 0.00 | 0.00 | 0.00 | 52 | 1017.5 |
| 20260901093727 | 80 | 150 | 0.0 | 1.0 | 0.00 | 0.00 | 0.00 | 51 | 1017.5 |
| 20260901093225 | 80 | 165 | 1.0 | 2.0 | 0.00 | 0.00 | 0.00 | 51 | 1017.4 |
| 20260901092722 | 80 | 179 | 1.0 | 1.0 | 0.00 | 0.00 | 0.00 | 52 | 1017.3 |
| 20260901092218 | 80 | 219 | 0.0 | 1.0 | 0.00 | 0.00 | 0.00 | 52 | 1017.5 |
| 20260901091713 | 80 | 163 | 1.0 | 3.0 | 0.00 | 0.00 | 0.00 | 52 | 1017.5 |
| 20260901091209 | 79 | 154 | 0.0 | 3.0 | 0.00 | 0.00 | 0.00 | 53 | 1017.5 |
| 20260901090703 | 78 | 145 | 0.0 | 0.0 | 0.00 | 0.00 | 0.00 | 55 | 1017.4 |
| 20260901090158 | 78 | 137 | 0.0 | 0.0 | 0.00 | 0.00 | 0.00 | 55 | 1017.2 |
| 20260901085654 | 78 | 139 | 0.0 | 0.0 | 0.00 | 0.00 | 0.00 | 55 | 1017.3 |
| 20260901085150 | 78 | 131 | 0.0 | 0.0 | 0.00 | 0.00 | 0.00 | 55 | 1017.3 |
| 20260901084645 | 78 | 133 | 0.0 | 0.0 | 0.00 | 0.00 | 0.00 | 55 | 1017.3 |
| 20260901084142 | 78 | 121 | 0.0 | 0.0 | 0.00 | 0.00 | 0.00 | 55 | 1017.2 |
| 20260901083641 | 78 | 137 | 0.0 | 0.0 | 0.00 | 0.00 | 0.00 | 55 | 1017.4 |
| 20260901083140 | 78 | 104 | 0.0 | 0.0 | 0.00 | 0.00 | 0.00 | 55 | 1017.2 |
| 20260901082634 | 78 | 131 | 0.0 | 0.0 | 0.00 | 0.00 | 0.00 | 55 | 1017.3 |
| 20260901082129 | 78 | 129 | 0.0 | 0.0 | 0.00 | 0.00 | 0.00 | 55 | 1017.1 |
| 20260901081625 | 78 | 120 | 0.0 | 0.0 | 0.00 | 0.00 | 0.00 | 55 | 1017.1 |
| 20260901081119 | 78 | 129 | 0.0 | 0.0 | 0.00 | 0.00 | 0.00 | 55 | 1016.9 |
| 20260901080614 | 78 | 129 | 0.0 | 0.0 | 0.00 | 0.00 | 0.00 | 54 | 1017.3 |
| 20260901080113 | 78 | 129 | 0.0 | 0.0 | 0.00 | 0.00 | 0.00 | 54 | 1017.2 |
| 20260901075609 | 78 | 105 | 0.0 | 0.0 | 0.00 | 0.00 | 0.00 | 54 | 1017.1 |
| 20260901075108 | 79 | 133 | 0.0 | 0.0 | 0.00 | 0.00 | 0.00 | 54 | 1017.1 |
| 20260901074608 | 79 | 108 | 0.0 | 0.0 | 0.00 | 0.00 | 0.00 | 53 | 1017.1 |
| 20260901074103 | 79 | 127 | 0.0 | 0.0 | 0.00 | 0.00 | 0.00 | 53 | 1017.2 |
| 20260901073600 | 79 | 129 | 0.0 | 0.0 | 0.00 | 0.00 | 0.00 | 54 | 1016.9 |
| 20260901073059 | 79 | 129 | 0.0 | 0.0 | 0.00 | 0.00 | 0.00 | 53 | 1017.1 |
| 20260901072555 | 79 | 120 | 0.0 | 0.0 | 0.00 | 0.00 | 0.00 | 52 | 1017.3 |
| 20260901072049 | 79 | 127 | 0.0 | 0.0 | 0.00 | 0.00 | 0.00 | 53 | 1017.1 |
| 20260901071544 | 79 | 135 | 0.0 | 0.0 | 0.00 | 0.00 | 0.00 | 53 | 1017.2 |
| 20260901071042 | 80 | 135 | 0.0 | 0.0 | 0.00 | 0.00 | 0.00 | 52 | 1017.2 |
| 20260901070537 | 80 | 135 | 0.0 | 0.0 | 0.00 | 0.00 | 0.00 | 51 | 1017.0 |
| 20260901070033 | 80 | 138 | 0.0 | 0.0 | 0.00 | 0.00 | 0.00 | 50 | 1017.1 |
| 20260901065527 | 81 | 137 | 0.0 | 0.0 | 0.00 | 0.00 | 0.00 | 50 | 1017.2 |
| 20260901065021 | 81 | 137 | 0.0 | 1.0 | 0.00 | 0.00 | 0.00 | 49 | 1017.2 |
| 20260901064519 | 82 | 141 | 0.0 | 1.0 | 0.00 | 0.00 | 0.00 | 48 | 1017.2 |
| 20260901064015 | 82 | 127 | 0.0 | 0.0 | 0.00 | 0.00 | 0.00 | 48 | 1017.1 |
| 20260901063512 | 82 | 119 | 0.0 | 0.0 | 0.00 | 0.00 | 0.00 | 48 | 1017.2 |
| 20260901063008 | 82 | 156 | 0.0 | 1.0 | 0.00 | 0.00 | 0.00 | 48 | 1017.3 |
| 20260901062503 | 82 | 127 | 0.0 | 0.0 | 0.00 | 0.00 | 0.00 | 48 | 1017.0 |
| 20260901061959 | 82 | 139 | 0.0 | 0.0 | 0.00 | 0.00 | 0.00 | 47 | 1017.0 |
| 20260901061454 | 83 | 132 | 0.0 | 0.0 | 0.00 | 0.00 | 0.00 | 47 | 1017.2 |
| 20260901060949 | 82 | 116 | 0.0 | 1.0 | 0.00 | 0.00 | 0.00 | 47 | 1017.1 |
| 20260901060444 | 82 | 97 | 0.0 | 0.0 | 0.00 | 0.00 | 0.00 | 47 | 1017.2 |
| 20260901055943 | 82 | 109 | 0.0 | 0.0 | 0.00 | 0.00 | 0.00 | 47 | 1017.1 |
| 20260901055440 | 83 | 143 | 0.0 | 0.0 | 0.00 | 0.00 | 0.00 | 47 | 1017.0 |
| 20260901054936 | 83 | 134 | 0.0 | 0.0 | 0.00 | 0.00 | 0.00 | 47 | 1017.2 |
| 20260901054434 | 83 | 143 | 0.0 | 0.0 | 0.00 | 0.00 | 0.00 | 47 | 1017.1 |
| 20260901053929 | 83 | 131 | 0.0 | 0.0 | 0.00 | 0.00 | 0.00 | 46 | 1017.0 |
| 20260901053425 | 84 | 145 | 0.0 | 0.0 | 0.00 | 0.00 | 0.00 | 45 | 1017.1 |
| 20260901052920 | 84 | 160 | 1.0 | 1.0 | 0.00 | 0.00 | 0.00 | 45 | 1017.1 |
| 20260901052415 | 84 | 153 | 1.0 | 1.0 | 0.00 | 0.00 | 0.00 | 45 | 1017.1 |
| 20260901051914 | 84 | 116 | 0.0 | 0.0 | 0.00 | 0.00 | 0.00 | 45 | 1017.1 |
| 20260901051410 | 84 | 132 | 0.0 | 0.0 | 0.00 | 0.00 | 0.00 | 44 | 1017.1 |
| 20260901050904 | 84 | 122 | 0.0 | 1.0 | 0.00 | 0.00 | 0.00 | 44 | 1017.0 |
| 20260901050400 | 84 | 125 | 1.0 | 1.0 | 0.00 | 0.00 | 0.00 | 44 | 1017.0 |
| 20260901045859 | 85 | 115 | 0.0 | 0.0 | 0.00 | 0.00 | 0.00 | 44 | 1016.9 |
| 20260901045354 | 85 | 131 | 1.0 | 1.0 | 0.00 | 0.00 | 0.00 | 43 | 1016.6 |
| 20260901044849 | 86 | 131 | 0.0 | 0.0 | 0.00 | 0.00 | 0.00 | 43 | 1016.9 |
| 20260901044346 | 86 | 168 | 0.0 | 2.0 | 0.00 | 0.00 | 0.00 | 42 | 1016.9 |
| 20260901043841 | 86 | 128 | 0.0 | 2.0 | 0.00 | 0.00 | 0.00 | 42 | 1016.8 |
| 20260901043337 | 87 | 142 | 0.0 | 1.0 | 0.00 | 0.00 | 0.00 | 41 | 1017.0 |
| 20260901042836 | 87 | 155 | 1.0 | 3.0 | 0.00 | 0.00 | 0.00 | 41 | 1016.9 |
| 20260901042331 | 87 | 125 | 0.0 | 1.0 | 0.00 | 0.00 | 0.00 | 41 | 1016.9 |
| 20260901041827 | 87 | 146 | 1.0 | 2.0 | 0.00 | 0.00 | 0.00 | 40 | 1016.7 |
| 20260901041322 | 87 | 162 | 3.0 | 3.0 | 0.00 | 0.00 | 0.00 | 40 | 1016.8 |
| 20260901040821 | 88 | 164 | 0.0 | 3.0 | 0.00 | 0.00 | 0.00 | 40 | 1016.9 |
| 20260901040320 | 88 | 130 | 1.0 | 2.0 | 0.00 | 0.00 | 0.00 | 39 | 1016.7 |
| 20260901035815 | 88 | 50 | 0.0 | 2.0 | 0.00 | 0.00 | 0.00 | 39 | 1016.7 |
| 20260901035314 | 88 | 186 | 0.0 | 3.0 | 0.00 | 0.00 | 0.00 | 40 | 1016.9 |
| 20260901034813 | 89 | 140 | 0.0 | 2.0 | 0.00 | 0.00 | 0.00 | 39 | 1016.7 |
| 20260901034308 | 89 | 195 | 3.0 | 4.0 | 0.00 | 0.00 | 0.00 | 38 | 1016.8 |
| 20260901033802 | 89 | 145 | 2.0 | 2.0 | 0.00 | 0.00 | 0.00 | 38 | 1016.6 |
| 20260901033301 | 89 | 110 | 2.0 | 8.0 | 0.00 | 0.00 | 0.00 | 38 | 1016.7 |
| 20260901032759 | 89 | 184 | 4.0 | 4.0 | 0.00 | 0.00 | 0.00 | 38 | 1016.9 |
| 20260901032254 | 89 | 152 | 0.0 | 2.0 | 0.00 | 0.00 | 0.00 | 38 | 1016.8 |
| 20260901031749 | 89 | 195 | 2.0 | 2.0 | 0.00 | 0.00 | 0.00 | 38 | 1016.7 |
| 20260901031244 | 89 | 129 | 2.0 | 3.0 | 0.00 | 0.00 | 0.00 | 38 | 1016.5 |
| 20260901030739 | 89 | 192 | 1.0 | 2.0 | 0.00 | 0.00 | 0.00 | 38 | 1016.6 |
| 20260901030234 | 89 | 175 | 2.0 | 3.0 | 0.00 | 0.00 | 0.00 | 38 | 1016.4 |
| 20260901025728 | 89 | 157 | 3.0 | 3.0 | 0.00 | 0.00 | 0.00 | 38 | 1016.5 |
| 20260901025223 | 89 | 155 | 0.0 | 1.0 | 0.00 | 0.00 | 0.00 | 38 | 1016.5 |
| 20260901024717 | 90 | 142 | 0.0 | 3.0 | 0.00 | 0.00 | 0.00 | 37 | 1016.3 |
| 20260901024217 | 89 | 149 | 1.0 | 2.0 | 0.00 | 0.00 | 0.00 | 38 | 1016.1 |
| 20260901023715 | 89 | 138 | 0.0 | 1.0 | 0.00 | 0.00 | 0.00 | 38 | 1016.3 |
| 20260901023210 | 90 | 127 | 1.0 | 2.0 | 0.00 | 0.00 | 0.00 | 37 | 1016.1 |
| 20260901022706 | 90 | 173 | 0.0 | 1.0 | 0.00 | 0.00 | 0.00 | 37 | 1016.2 |
| 20260901022201 | 90 | 60 | 1.0 | 1.0 | 0.00 | 0.00 | 0.00 | 37 | 1016.0 |
| 20260901021656 | 90 | 121 | 0.0 | 1.0 | 0.00 | 0.00 | 0.00 | 37 | 1015.7 |
| 20260901021151 | 91 | 125 | 0.0 | 0.0 | 0.00 | 0.00 | 0.00 | 36 | 1015.8 |
| 20260901020647 | 91 | 27 | 0.0 | 2.0 | 0.00 | 0.00 | 0.00 | 36 | 1015.8 |
| 20260901020142 | 91 | 44 | 0.0 | 1.0 | 0.00 | 0.00 | 0.00 | 35 | 1015.7 |
| 20260901015637 | 91 | 175 | 0.0 | 2.0 | 0.00 | 0.00 | 0.00 | 35 | 1015.5 |
| 20260901015137 | 92 | 110 | 2.0 | 2.0 | 0.00 | 0.00 | 0.00 | 34 | 1015.6 |
| 20260901014632 | 92 | 185 | 0.0 | 1.0 | 0.00 | 0.00 | 0.00 | 34 | 1015.5 |
| 20260901014128 | 93 | 147 | 1.0 | 6.0 | 0.00 | 0.00 | 0.00 | 33 | 1015.4 |
| 20260901013624 | 93 | 90 | 1.0 | 2.0 | 0.00 | 0.00 | 0.00 | 33 | 1015.5 |
| 20260901013119 | 93 | 135 | 0.0 | 4.0 | 0.00 | 0.00 | 0.00 | 33 | 1015.3 |
| 20260901012619 | 93 | 161 | 1.0 | 3.0 | 0.00 | 0.00 | 0.00 | 33 | 1015.3 |